sensor_id;sensor_type;location;lat;lon;timestamp;pressure;altitude;pressure_sealevel;temperature;humidity
73240;BME280;61452;40.054;4.110;2024-02-23T00:02:23;100544.06;;;16.11;100.00
73240;BME280;61452;40.054;4.110;2024-02-23T00:07:25;100537.22;;;16.09;100.00
73240;BME280;61452;40.054;4.110;2024-02-23T00:12:27;100541.41;;;16.11;100.00
73240;BME280;61452;40.054;4.110;2024-02-23T00:17:30;100552.84;;;16.12;100.00
73240;BME280;61452;40.054;4.110;2024-02-23T00:22:33;100551.06;;;16.12;100.00
73240;BME280;61452;40.054;4.110;2024-02-23T00:27:35;100583.75;;;16.11;100.00
73240;BME280;61452;40.054;4.110;2024-02-23T00:32:38;100589.03;;;16.11;100.00
73240;BME280;61452;40.054;4.110;2024-02-23T00:37:40;100590.03;;;16.10;100.00
73240;BME280;61452;40.054;4.110;2024-02-23T00:42:42;100606.88;;;16.09;100.00
73240;BME280;61452;40.054;4.110;2024-02-23T00:47:44;100609.38;;;16.11;100.00
73240;BME280;61452;40.054;4.110;2024-02-23T00:52:48;100604.94;;;16.11;100.00
73240;BME280;61452;40.054;4.110;2024-02-23T00:57:50;100604.72;;;16.14;100.00
73240;BME280;61452;40.054;4.110;2024-02-23T01:02:53;100594.13;;;16.14;100.00
73240;BME280;61452;40.054;4.110;2024-02-23T01:07:55;100568.72;;;16.12;100.00
73240;BME280;61452;40.054;4.110;2024-02-23T01:12:57;100566.31;;;16.09;100.00
73240;BME280;61452;40.054;4.110;2024-02-23T01:17:59;100570.66;;;16.10;100.00
73240;BME280;61452;40.054;4.110;2024-02-23T01:23:01;100566.09;;;16.12;100.00
73240;BME280;61452;40.054;4.110;2024-02-23T01:28:04;100571.38;;;16.12;100.00
73240;BME280;61452;40.054;4.110;2024-02-23T01:33:06;100556.34;;;16.12;100.00
73240;BME280;61452;40.054;4.110;2024-02-23T01:38:08;100541.56;;;16.10;100.00
73240;BME280;61452;40.054;4.110;2024-02-23T01:43:10;100527.50;;;16.09;100.00
73240;BME280;61452;40.054;4.110;2024-02-23T01:48:12;100520.41;;;16.10;100.00
73240;BME280;61452;40.054;4.110;2024-02-23T01:53:15;100511.47;;;16.11;100.00
73240;BME280;61452;40.054;4.110;2024-02-23T01:58:18;100495.50;;;16.12;100.00
73240;BME280;61452;40.054;4.110;2024-02-23T02:03:21;100496.59;;;16.10;100.00
73240;BME280;61452;40.054;4.110;2024-02-23T02:08:23;100499.22;;;16.10;100.00
73240;BME280;61452;40.054;4.110;2024-02-23T02:13:28;100499.22;;;16.10;100.00
73240;BME280;61452;40.054;4.110;2024-02-23T02:18:30;100493.78;;;16.11;100.00
73240;BME280;61452;40.054;4.110;2024-02-23T02:23:32;100502.56;;;16.12;100.00
73240;BME280;61452;40.054;4.110;2024-02-23T02:28:34;100492.94;;;16.11;100.00
73240;BME280;61452;40.054;4.110;2024-02-23T02:33:36;100486.00;;;16.10;100.00
73240;BME280;61452;40.054;4.110;2024-02-23T02:38:39;100488.75;;;16.08;100.00
73240;BME280;61452;40.054;4.110;2024-02-23T02:43:41;100492.25;;;16.09;100.00
73240;BME280;61452;40.054;4.110;2024-02-23T02:48:43;100492.84;;;16.12;100.00
73240;BME280;61452;40.054;4.110;2024-02-23T02:53:45;100485.84;;;16.11;100.00
73240;BME280;61452;40.054;4.110;2024-02-23T02:58:47;100473.72;;;16.09;100.00
73240;BME280;61452;40.054;4.110;2024-02-23T03:03:50;100469.28;;;16.09;100.00
73240;BME280;61452;40.054;4.110;2024-02-23T03:08:52;100461.34;;;16.09;100.00
73240;BME280;61452;40.054;4.110;2024-02-23T03:13:54;100476.25;;;16.10;100.00
73240;BME280;61452;40.054;4.110;2024-02-23T03:18:56;100473.63;;;16.10;100.00
73240;BME280;61452;40.054;4.110;2024-02-23T03:23:58;100471.78;;;16.11;100.00
73240;BME280;61452;40.054;4.110;2024-02-23T03:29:00;100487.81;;;16.09;100.00
73240;BME280;61452;40.054;4.110;2024-02-23T03:34:03;100487.81;;;16.09;100.00
73240;BME280;61452;40.054;4.110;2024-02-23T03:39:05;100498.25;;;16.11;100.00
73240;BME280;61452;40.054;4.110;2024-02-23T03:44:07;100476.13;;;16.12;100.00
73240;BME280;61452;40.054;4.110;2024-02-23T03:49:09;100478.06;;;16.10;100.00
73240;BME280;61452;40.054;4.110;2024-02-23T03:54:12;100483.47;;;16.08;100.00
73240;BME280;61452;40.054;4.110;2024-02-23T03:59:14;100500.19;;;16.09;100.00
73240;BME280;61452;40.054;4.110;2024-02-23T04:04:16;100520.50;;;16.08;100.00
73240;BME280;61452;40.054;4.110;2024-02-23T04:09:19;100519.75;;;16.06;100.00
73240;BME280;61452;40.054;4.110;2024-02-23T04:14:22;100513.53;;;16.07;100.00
73240;BME280;61452;40.054;4.110;2024-02-23T04:19:25;100516.91;;;16.09;100.00
73240;BME280;61452;40.054;4.110;2024-02-23T04:24:27;100505.69;;;16.06;100.00
73240;BME280;61452;40.054;4.110;2024-02-23T04:29:29;100506.44;;;16.08;100.00
73240;BME280;61452;40.054;4.110;2024-02-23T04:34:31;100533.94;;;16.05;100.00
73240;BME280;61452;40.054;4.110;2024-02-23T04:39:33;100549.59;;;16.08;100.00
73240;BME280;61452;40.054;4.110;2024-02-23T04:44:35;100541.78;;;16.07;100.00
73240;BME280;61452;40.054;4.110;2024-02-23T04:49:37;100527.59;;;16.08;100.00
73240;BME280;61452;40.054;4.110;2024-02-23T04:54:40;100530.25;;;16.08;100.00
73240;BME280;61452;40.054;4.110;2024-02-23T04:59:42;100530.34;;;16.06;100.00
73240;BME280;61452;40.054;4.110;2024-02-23T05:04:44;100543.56;;;16.06;100.00
73240;BME280;61452;40.054;4.110;2024-02-23T05:09:46;100528.53;;;16.07;100.00
73240;BME280;61452;40.054;4.110;2024-02-23T05:14:48;100529.28;;;16.09;100.00
73240;BME280;61452;40.054;4.110;2024-02-23T05:19:50;100538.19;;;16.08;100.00
73240;BME280;61452;40.054;4.110;2024-02-23T05:24:53;100568.22;;;16.07;100.00
73240;BME280;61452;40.054;4.110;2024-02-23T05:29:55;100562.09;;;16.06;100.00
73240;BME280;61452;40.054;4.110;2024-02-23T05:34:57;100574.47;;;16.06;100.00
73240;BME280;61452;40.054;4.110;2024-02-23T05:39:59;100586.84;;;16.05;100.00
73240;BME280;61452;40.054;4.110;2024-02-23T05:45:02;100590.34;;;16.06;100.00
73240;BME280;61452;40.054;4.110;2024-02-23T05:50:08;100592.78;;;16.09;100.00
73240;BME280;61452;40.054;4.110;2024-02-23T05:55:13;100591.84;;;16.10;100.00
73240;BME280;61452;40.054;4.110;2024-02-23T06:00:15;100596.50;;;16.06;100.00
73240;BME280;61452;40.054;4.110;2024-02-23T06:05:23;100597.44;;;16.05;100.00
73240;BME280;61452;40.054;4.110;2024-02-23T06:10:29;100594.78;;;16.05;100.00
73240;BME280;61452;40.054;4.110;2024-02-23T06:15:31;100597.34;;;16.07;100.00
73240;BME280;61452;40.054;4.110;2024-02-23T06:20:33;100614.06;;;16.07;100.00
73240;BME280;61452;40.054;4.110;2024-02-23T06:25:35;100629.94;;;16.07;100.00
73240;BME280;61452;40.054;4.110;2024-02-23T06:30:37;100644.00;;;16.08;100.00
73240;BME280;61452;40.054;4.110;2024-02-23T06:35:39;100651.00;;;16.09;100.00
73240;BME280;61452;40.054;4.110;2024-02-23T06:40:41;100656.19;;;16.10;100.00
73240;BME280;61452;40.054;4.110;2024-02-23T06:45:53;100669.00;;;16.04;100.00
73240;BME280;61452;40.054;4.110;2024-02-23T06:50:55;100683.09;;;16.04;100.00
73240;BME280;61452;40.054;4.110;2024-02-23T06:55:57;100701.59;;;16.04;100.00
73240;BME280;61452;40.054;4.110;2024-02-23T07:01:01;100714.09;;;16.02;100.00
73240;BME280;61452;40.054;4.110;2024-02-23T07:06:05;100717.38;;;15.93;100.00
73240;BME280;61452;40.054;4.110;2024-02-23T07:11:07;100732.97;;;15.85;100.00
73240;BME280;61452;40.054;4.110;2024-02-23T07:16:09;100739.56;;;15.80;100.00
73240;BME280;61452;40.054;4.110;2024-02-23T07:21:11;100747.47;;;15.92;100.00
73240;BME280;61452;40.054;4.110;2024-02-23T07:26:13;100739.91;;;15.99;100.00
73240;BME280;61452;40.054;4.110;2024-02-23T07:31:16;100721.19;;;16.02;100.00
73240;BME280;61452;40.054;4.110;2024-02-23T07:36:18;100724.56;;;16.04;100.00
73240;BME280;61452;40.054;4.110;2024-02-23T07:41:20;100726.97;;;16.07;100.00
73240;BME280;61452;40.054;4.110;2024-02-23T07:46:22;100720.00;;;16.06;100.00
73240;BME280;61452;40.054;4.110;2024-02-23T07:51:28;100733.56;;;16.01;100.00
73240;BME280;61452;40.054;4.110;2024-02-23T07:56:30;100746.91;;;16.00;100.00
73240;BME280;61452;40.054;4.110;2024-02-23T08:01:33;100735.47;;;15.99;100.00
73240;BME280;61452;40.054;4.110;2024-02-23T08:06:35;100738.00;;;16.01;100.00
73240;BME280;61452;40.054;4.110;2024-02-23T08:11:38;100738.84;;;16.01;100.00
73240;BME280;61452;40.054;4.110;2024-02-23T08:16:40;100754.97;;;15.98;100.00
73240;BME280;61452;40.054;4.110;2024-02-23T08:21:42;100761.19;;;15.97;100.00
73240;BME280;61452;40.054;4.110;2024-02-23T08:26:45;100760.25;;;15.98;100.00
73240;BME280;61452;40.054;4.110;2024-02-23T08:31:48;100783.84;;;16.01;100.00
73240;BME280;61452;40.054;4.110;2024-02-23T08:36:50;100776.00;;;16.00;100.00
73240;BME280;61452;40.054;4.110;2024-02-23T08:41:53;100764.69;;;15.98;100.00
73240;BME280;61452;40.054;4.110;2024-02-23T08:46:55;100759.59;;;15.95;100.00
73240;BME280;61452;40.054;4.110;2024-02-23T08:51:57;100745.53;;;15.94;100.00
73240;BME280;61452;40.054;4.110;2024-02-23T08:57:00;100761.31;;;15.96;100.00
73240;BME280;61452;40.054;4.110;2024-02-23T09:02:03;100775.38;;;15.96;100.00
73240;BME280;61452;40.054;4.110;2024-02-23T09:07:06;100777.19;;;15.96;100.00
73240;BME280;61452;40.054;4.110;2024-02-23T09:12:08;100796.66;;;15.95;100.00
73240;BME280;61452;40.054;4.110;2024-02-23T09:17:13;100800.13;;;15.95;100.00
73240;BME280;61452;40.054;4.110;2024-02-23T09:22:15;100793.91;;;15.96;100.00
73240;BME280;61452;40.054;4.110;2024-02-23T09:27:20;100800.13;;;15.95;100.00
73240;BME280;61452;40.054;4.110;2024-02-23T09:32:22;100807.13;;;15.96;100.00
73240;BME280;61452;40.054;4.110;2024-02-23T09:37:24;100793.91;;;15.96;100.00
73240;BME280;61452;40.054;4.110;2024-02-23T09:42:28;100799.53;;;15.92;100.00
73240;BME280;61452;40.054;4.110;2024-02-23T09:47:34;100797.72;;;15.92;100.00
73240;BME280;61452;40.054;4.110;2024-02-23T09:52:36;100812.63;;;15.93;100.00
73240;BME280;61452;40.054;4.110;2024-02-23T09:57:39;100812.50;;;15.95;100.00
73240;BME280;61452;40.054;4.110;2024-02-23T10:02:42;100826.59;;;15.95;100.00
73240;BME280;61452;40.054;4.110;2024-02-23T10:07:45;100832.94;;;15.93;100.00
73240;BME280;61452;40.054;4.110;2024-02-23T10:12:48;100848.94;;;15.91;100.00
73240;BME280;61452;40.054;4.110;2024-02-23T10:17:51;100864.47;;;15.96;100.00
73240;BME280;61452;40.054;4.110;2024-02-23T10:22:56;100841.63;;;15.95;100.00
73240;BME280;61452;40.054;4.110;2024-02-23T10:27:58;100857.50;;;15.95;100.00
73240;BME280;61452;40.054;4.110;2024-02-23T10:33:03;100858.56;;;15.92;100.00
73240;BME280;61452;40.054;4.110;2024-02-23T10:38:08;100870.81;;;15.93;100.00
73240;BME280;61452;40.054;4.110;2024-02-23T10:43:13;100877.81;;;15.94;100.00
73240;BME280;61452;40.054;4.110;2024-02-23T10:48:18;100876.09;;;15.93;100.00
73240;BME280;61452;40.054;4.110;2024-02-23T10:53:21;100858.34;;;15.95;100.00
73240;BME280;61452;40.054;4.110;2024-02-23T10:58:24;100863.72;;;15.94;100.00
73240;BME280;61452;40.054;4.110;2024-02-23T11:03:28;100871.88;;;15.91;100.00
73240;BME280;61452;40.054;4.110;2024-02-23T11:08:33;100883.41;;;15.90;100.00
73240;BME280;61452;40.054;4.110;2024-02-23T11:13:39;100887.75;;;15.91;100.00
73240;BME280;61452;40.054;4.110;2024-02-23T11:18:41;100884.28;;;15.90;100.00
73240;BME280;61452;40.054;4.110;2024-02-23T11:23:53;100892.19;;;15.90;100.00
73240;BME280;61452;40.054;4.110;2024-02-23T11:28:55;100898.88;;;15.96;100.00
73240;BME280;61452;40.054;4.110;2024-02-23T11:33:57;100891.25;;;15.91;100.00
73240;BME280;61452;40.054;4.110;2024-02-23T11:39:01;100885.03;;;15.92;100.00
73240;BME280;61452;40.054;4.110;2024-02-23T11:44:03;100878.88;;;15.92;100.00
73240;BME280;61452;40.054;4.110;2024-02-23T11:49:05;100881.63;;;15.90;100.00
73240;BME280;61452;40.054;4.110;2024-02-23T11:54:08;100875.38;;;15.91;100.00
73240;BME280;61452;40.054;4.110;2024-02-23T11:59:10;100877.91;;;15.93;100.00
73240;BME280;61452;40.054;4.110;2024-02-23T12:04:14;100877.19;;;15.91;100.00
73240;BME280;61452;40.054;4.110;2024-02-23T12:09:16;100868.41;;;15.90;100.00
73240;BME280;61452;40.054;4.110;2024-02-23T12:14:20;100876.34;;;15.90;100.00
73240;BME280;61452;40.054;4.110;2024-02-23T12:19:22;100870.19;;;15.90;100.00
73240;BME280;61452;40.054;4.110;2024-02-23T12:24:25;100867.44;;;15.91;100.00
73240;BME280;61452;40.054;4.110;2024-02-23T12:29:29;100863.84;;;15.92;100.00
73240;BME280;61452;40.054;4.110;2024-02-23T12:34:32;100859.50;;;15.91;100.00
73240;BME280;61452;40.054;4.110;2024-02-23T12:39:34;100868.41;;;15.90;100.00
73240;BME280;61452;40.054;4.110;2024-02-23T12:44:38;100859.63;;;15.90;100.00
73240;BME280;61452;40.054;4.110;2024-02-23T12:49:40;100866.59;;;15.91;100.00
73240;BME280;61452;40.054;4.110;2024-02-23T12:54:46;100849.78;;;15.92;100.00
73240;BME280;61452;40.054;4.110;2024-02-23T12:59:52;100855.06;;;15.92;100.00
73240;BME280;61452;40.054;4.110;2024-02-23T13:04:54;100862.03;;;15.93;100.00
73240;BME280;61452;40.054;4.110;2024-02-23T13:09:57;100857.06;;;15.88;100.00
73240;BME280;61452;40.054;4.110;2024-02-23T13:14:59;100859.50;;;15.91;100.00
73240;BME280;61452;40.054;4.110;2024-02-23T13:20:01;100856.75;;;15.93;100.00
73240;BME280;61452;40.054;4.110;2024-02-23T13:25:12;100856.75;;;15.93;100.00
73240;BME280;61452;40.054;4.110;2024-02-23T13:30:15;100866.50;;;15.92;100.00
73240;BME280;61452;40.054;4.110;2024-02-23T13:35:17;100859.50;;;15.91;100.00
73240;BME280;61452;40.054;4.110;2024-02-23T13:40:19;100860.66;;;15.87;100.00
73240;BME280;61452;40.054;4.110;2024-02-23T13:45:21;100852.63;;;15.89;100.00
73240;BME280;61452;40.054;4.110;2024-02-23T13:50:25;100858.00;;;15.87;100.00
73240;BME280;61452;40.054;4.110;2024-02-23T13:55:28;100854.31;;;15.90;100.00
73240;BME280;61452;40.054;4.110;2024-02-23T14:00:30;100857.16;;;15.87;100.00
73240;BME280;61452;40.054;4.110;2024-02-23T14:05:32;100856.66;;;15.82;100.00
73240;BME280;61452;40.054;4.110;2024-02-23T14:10:35;100871.56;;;15.83;100.00
73240;BME280;61452;40.054;4.110;2024-02-23T14:15:37;100859.19;;;15.83;100.00
73240;BME280;61452;40.054;4.110;2024-02-23T14:20:39;100853.81;;;15.85;100.00
73240;BME280;61452;40.054;4.110;2024-02-23T14:25:42;100867.53;;;15.77;100.00
73240;BME280;61452;40.054;4.110;2024-02-23T14:30:44;100859.09;;;15.72;100.00
73240;BME280;61452;40.054;4.110;2024-02-23T14:35:46;100865.31;;;15.71;100.00
73240;BME280;61452;40.054;4.110;2024-02-23T14:40:49;100856.22;;;15.75;100.00
73240;BME280;61452;40.054;4.110;2024-02-23T14:45:51;100848.81;;;15.80;100.00
73240;BME280;61452;40.054;4.110;2024-02-23T14:50:54;100863.84;;;15.80;100.00
73240;BME280;61452;40.054;4.110;2024-02-23T14:55:57;100884.25;;;15.77;100.00
73240;BME280;61452;40.054;4.110;2024-02-23T15:00:59;100885.44;;;15.73;100.00
73240;BME280;61452;40.054;4.110;2024-02-23T15:06:01;100897.06;;;15.71;100.00
73240;BME280;61452;40.054;4.110;2024-02-23T15:11:03;100877.69;;;15.70;100.00
73240;BME280;61452;40.054;4.110;2024-02-23T15:16:07;100893.06;;;15.78;100.00
73240;BME280;61452;40.054;4.110;2024-02-23T15:21:09;100884.59;;;15.73;100.00
73240;BME280;61452;40.054;4.110;2024-02-23T15:26:11;100884.88;;;15.68;100.00
73240;BME280;61452;40.054;4.110;2024-02-23T15:31:13;100870.94;;;15.66;100.00
73240;BME280;61452;40.054;4.110;2024-02-23T15:36:16;100880.56;;;15.67;100.00
73240;BME280;61452;40.054;4.110;2024-02-23T15:41:19;100865.41;;;15.69;100.00
73240;BME280;61452;40.054;4.110;2024-02-23T15:46:21;100866.06;;;15.73;100.00
73240;BME280;61452;40.054;4.110;2024-02-23T15:51:23;100883.59;;;15.74;100.00
73240;BME280;61452;40.054;4.110;2024-02-23T15:56:45;100887.31;;;15.71;100.00
73240;BME280;61452;40.054;4.110;2024-02-23T16:01:47;100882.88;;;15.72;100.00
73240;BME280;61452;40.054;4.110;2024-02-23T16:06:50;100870.38;;;15.74;100.00
73240;BME280;61452;40.054;4.110;2024-02-23T16:11:52;100876.34;;;15.77;100.00
73240;BME280;61452;40.054;4.110;2024-02-23T16:16:54;100858.88;;;15.75;100.00
73240;BME280;61452;40.054;4.110;2024-02-23T16:21:56;100875.47;;;15.77;100.00
73240;BME280;61452;40.054;4.110;2024-02-23T16:26:58;100885.44;;;15.73;100.00
73240;BME280;61452;40.054;4.110;2024-02-23T16:32:01;100873.03;;;15.74;100.00
73240;BME280;61452;40.054;4.110;2024-02-23T16:37:03;100865.09;;;15.74;100.00
73240;BME280;61452;40.054;4.110;2024-02-23T16:42:05;100859.63;;;15.77;100.00
73240;BME280;61452;40.054;4.110;2024-02-23T16:47:07;100880.53;;;15.80;100.00
73240;BME280;61452;40.054;4.110;2024-02-23T16:52:09;100881.53;;;15.79;100.00
73240;BME280;61452;40.054;4.110;2024-02-23T16:57:12;100878.88;;;15.79;100.00
73240;BME280;61452;40.054;4.110;2024-02-23T17:02:14;100876.84;;;15.83;100.00
73240;BME280;61452;40.054;4.110;2024-02-23T17:07:16;100878.47;;;15.85;100.00
73240;BME280;61452;40.054;4.110;2024-02-23T17:12:18;100885.41;;;15.86;100.00
73240;BME280;61452;40.054;4.110;2024-02-23T17:17:22;100878.47;;;15.85;100.00
73240;BME280;61452;40.054;4.110;2024-02-23T17:22:25;100883.84;;;15.84;100.00
73240;BME280;61452;40.054;4.110;2024-02-23T17:27:28;100892.09;;;15.79;100.00
73240;BME280;61452;40.054;4.110;2024-02-23T17:32:31;100885.97;;;15.78;100.00
73240;BME280;61452;40.054;4.110;2024-02-23T17:37:33;100893.06;;;15.78;100.00
73240;BME280;61452;40.054;4.110;2024-02-23T17:42:35;100888.59;;;15.78;100.00
73240;BME280;61452;40.054;4.110;2024-02-23T17:47:38;100895.59;;;15.80;100.00
73240;BME280;61452;40.054;4.110;2024-02-23T17:52:40;100890.19;;;15.81;100.00
73240;BME280;61452;40.054;4.110;2024-02-23T17:57:42;100891.88;;;15.82;100.00
73240;BME280;61452;40.054;4.110;2024-02-23T18:02:46;100903.31;;;15.83;100.00
73240;BME280;61452;40.054;4.110;2024-02-23T18:07:48;100912.94;;;15.84;100.00
73240;BME280;61452;40.054;4.110;2024-02-23T18:12:50;100922.44;;;15.86;100.00
73240;BME280;61452;40.054;4.110;2024-02-23T18:17:53;100918.13;;;15.85;100.00
73240;BME280;61452;40.054;4.110;2024-02-23T18:22:55;100920.78;;;15.85;100.00
73240;BME280;61452;40.054;4.110;2024-02-23T18:27:58;100922.44;;;15.86;100.00
73240;BME280;61452;40.054;4.110;2024-02-23T18:33:00;100923.41;;;15.85;100.00
73240;BME280;61452;40.054;4.110;2024-02-23T18:38:03;100925.22;;;15.85;100.00
73240;BME280;61452;40.054;4.110;2024-02-23T18:43:05;100939.38;;;15.84;100.00
73240;BME280;61452;40.054;4.110;2024-02-23T18:48:07;100942.03;;;15.84;100.00
73240;BME280;61452;40.054;4.110;2024-02-23T18:53:09;100945.63;;;15.83;100.00
73240;BME280;61452;40.054;4.110;2024-02-23T18:58:12;100949.13;;;15.83;100.00
73240;BME280;61452;40.054;4.110;2024-02-23T19:03:14;100956.19;;;15.83;100.00
73240;BME280;61452;40.054;4.110;2024-02-23T19:08:16;100956.19;;;15.83;100.00
73240;BME280;61452;40.054;4.110;2024-02-23T19:13:18;100955.25;;;15.84;100.00
73240;BME280;61452;40.054;4.110;2024-02-23T19:18:20;100964.22;;;15.81;100.00
73240;BME280;61452;40.054;4.110;2024-02-23T19:23:22;100973.03;;;15.82;100.00
73240;BME280;61452;40.054;4.110;2024-02-23T19:28:25;100969.44;;;15.83;100.00
73240;BME280;61452;40.054;4.110;2024-02-23T19:33:27;100975.56;;;15.83;100.00
73240;BME280;61452;40.054;4.110;2024-02-23T19:38:30;100978.31;;;15.82;100.00
73240;BME280;61452;40.054;4.110;2024-02-23T19:43:32;100982.75;;;15.81;100.00
73240;BME280;61452;40.054;4.110;2024-02-23T19:48:34;100983.69;;;15.80;100.00
73240;BME280;61452;40.054;4.110;2024-02-23T19:53:36;100986.25;;;15.82;100.00
73240;BME280;61452;40.054;4.110;2024-02-23T19:58:38;100976.81;;;15.77;100.00
73240;BME280;61452;40.054;4.110;2024-02-23T20:03:40;100979.47;;;15.77;100.00
73240;BME280;61452;40.054;4.110;2024-02-23T20:08:42;100983.81;;;15.78;100.00
73240;BME280;61452;40.054;4.110;2024-02-23T20:13:45;100980.41;;;15.76;100.00
73240;BME280;61452;40.054;4.110;2024-02-23T20:18:48;100979.47;;;15.77;100.00
73240;BME280;61452;40.054;4.110;2024-02-23T20:23:50;100975.88;;;15.78;100.00
73240;BME280;61452;40.054;4.110;2024-02-23T20:28:52;100974.09;;;15.79;100.00
73240;BME280;61452;40.054;4.110;2024-02-23T20:33:55;100978.63;;;15.77;100.00
73240;BME280;61452;40.054;4.110;2024-02-23T20:38:57;100980.41;;;15.76;100.00
73240;BME280;61452;40.054;4.110;2024-02-23T20:43:59;100983.06;;;15.76;100.00
73240;BME280;61452;40.054;4.110;2024-02-23T20:49:01;100984.75;;;15.77;100.00
73240;BME280;61452;40.054;4.110;2024-02-23T20:54:04;100980.41;;;15.76;100.00
73240;BME280;61452;40.054;4.110;2024-02-23T20:59:08;100979.66;;;15.74;100.00
73240;BME280;61452;40.054;4.110;2024-02-23T21:04:10;100972.50;;;15.76;100.00
73240;BME280;61452;40.054;4.110;2024-02-23T21:09:12;100969.00;;;15.76;100.00
73240;BME280;61452;40.054;4.110;2024-02-23T21:14:15;100962.94;;;15.74;100.00
73240;BME280;61452;40.054;4.110;2024-02-23T21:19:18;100961.06;;;15.76;100.00
73240;BME280;61452;40.054;4.110;2024-02-23T21:24:20;100969.00;;;15.76;100.00
73240;BME280;61452;40.054;4.110;2024-02-23T21:29:22;100962.84;;;15.75;100.00
73240;BME280;61452;40.054;4.110;2024-02-23T21:34:24;100965.59;;;15.74;100.00
73240;BME280;61452;40.054;4.110;2024-02-23T21:39:26;100963.94;;;15.73;100.00
73240;BME280;61452;40.054;4.110;2024-02-23T21:44:29;100954.19;;;15.73;100.00
73240;BME280;61452;40.054;4.110;2024-02-23T21:49:31;100941.06;;;15.72;100.00
73240;BME280;61452;40.054;4.110;2024-02-23T21:54:33;100956.09;;;15.71;100.00
73240;BME280;61452;40.054;4.110;2024-02-23T21:59:35;100949.84;;;15.72;100.00
73240;BME280;61452;40.054;4.110;2024-02-23T22:04:37;100947.94;;;15.74;100.00
73240;BME280;61452;40.054;4.110;2024-02-23T22:09:41;100944.56;;;15.72;100.00
73240;BME280;61452;40.054;4.110;2024-02-23T22:14:48;100938.44;;;15.72;100.00
73240;BME280;61452;40.054;4.110;2024-02-23T22:19:50;100937.56;;;15.71;100.00
73240;BME280;61452;40.054;4.110;2024-02-23T22:24:53;100928.88;;;15.69;100.00
73240;BME280;61452;40.054;4.110;2024-02-23T22:29:58;100922.13;;;15.65;100.00
73240;BME280;61452;40.054;4.110;2024-02-23T22:35:01;100926.34;;;15.68;100.00
73240;BME280;61452;40.054;4.110;2024-02-23T22:40:03;100926.34;;;15.68;100.00
73240;BME280;61452;40.054;4.110;2024-02-23T22:45:06;100913.13;;;15.68;100.00
73240;BME280;61452;40.054;4.110;2024-02-23T22:50:09;100911.31;;;15.68;100.00
73240;BME280;61452;40.054;4.110;2024-02-23T22:55:11;100900.75;;;15.68;100.00
73240;BME280;61452;40.054;4.110;2024-02-23T23:00:14;100905.19;;;15.68;100.00
73240;BME280;61452;40.054;4.110;2024-02-23T23:05:16;100901.81;;;15.66;100.00
73240;BME280;61452;40.054;4.110;2024-02-23T23:10:18;100893.13;;;15.64;100.00
73240;BME280;61452;40.054;4.110;2024-02-23T23:15:20;100890.41;;;15.65;100.00
73240;BME280;61452;40.054;4.110;2024-02-23T23:20:22;100889.31;;;15.68;100.00
73240;BME280;61452;40.054;4.110;2024-02-23T23:25:25;100870.09;;;15.66;100.00
73240;BME280;61452;40.054;4.110;2024-02-23T23:30:27;100872.81;;;15.64;100.00
73240;BME280;61452;40.054;4.110;2024-02-23T23:35:29;100866.69;;;15.64;100.00
73240;BME280;61452;40.054;4.110;2024-02-23T23:40:31;100866.69;;;15.64;100.00
73240;BME280;61452;40.054;4.110;2024-02-23T23:45:33;100864.81;;;15.66;100.00
73240;BME280;61452;40.054;4.110;2024-02-23T23:50:35;100868.47;;;15.63;100.00
73240;BME280;61452;40.054;4.110;2024-02-23T23:55:38;100865.00;;;15.63;100.00
